Capitol Logistics 462


KEWR
Newark Liberty International Airport
Newark, New Jersey, US
KRFD
Chicago/Rockford International Airport
Rockford, Illinois, US

Route Details

Aircraft Information
Primary: Boeing 737-800BCF
Backup: Not Available
Route Data
Distance: 913nm
Sched. Duration: 1h 54m
Avg. Duration: 3h 76m (+222m)
Times Flown: 5
Recm'd Route: COATE Q436 RAAKK Q438 BERYS FNT J94 OBK V100 RFD
Planned Altitude: 38,000ft
Origin Wx: KEWR 291220Z 03006KT 7SM -RA FEW007 BKN041 BKN075 OVC130 12/10 A2989 RMK AO2 P0002 T01170100
Dest. Wx: KRFD 291201Z 02014G24KT 10SM BKN016 OVC240 04/00 A2992 RMK AO2 T00440000
Notes:

Financial History
Total Freight: 64,944lbs
Average Load: 12,989lbs/flt
Fuel Used: 87,418lbs
Avg. Fuel Used: 17,484lbs/flt
Fuel Expense: $107,524
Avg. Fuel Expense: $21,505
Avg. Fuel Cost: $1.23/lbs
Total Gross Income: $88,720
Pilot Pay: $775
Total Expenses: $9,842
Total Revenue: $-31,286
Average Revenue: $17,743.97